Gifford, IL (61847)

8:35 PM CDT on August 26, 2016 (GMT -0500)
Flatville | | Change Station

Elev 686 ft 40.24 °N, 88.06 °W | Updated 6 minutes ago

Light Rain
Light Rain
72.1 °F
Feels Like 72.1 °F
N
0.0
Wind Variable Wind from North
Gusts 0.0 mph

Today
High -- | Low -- °F
--% Chance of Precip.
Yesterday
High -- | Low -- °F
Precip. -- in
Pressure 30.11 in
Visibility 7.0 miles
Clouds Scattered Clouds 7000 ft
Mostly Cloudy 11000 ft
Dew Point 70 °F
Humidity 93%
Rainfall 0.23 in
Snow Depth Not available.
6:14 AM 7:32 PM
Waning Crescent, 29% visible
METAR KTIP 270115Z AUTO 08003KT 7SM -RA SCT070 BKN110 23/23 A3011 RMK AO2 T02310225
Pressure 30.11 in
Visibility 7.0 miles
Clouds Scattered Clouds 7000 ft
Mostly Cloudy 11000 ft
Dew Point 70 °F
Humidity 93%
Rainfall 0.23 in
Snow Depth Not available.
6:14 AM 7:32 PM
Waning Crescent, 29% visible
METAR KTIP 270115Z AUTO 08003KT 7SM -RA SCT070 BKN110 23/23 A3011 RMK AO2 T02310225

10-Day Weather Forecast

Almanac

Astronomy

Aug. 26, 2016 Rise Set
Actual Time
Civil Twilight
Nautical Twilight
Astronomical Twilight
Moon
Length of Visible Light
Length of Day
Tomorrow will be .
, % of the Moon is Illuminated

Today's Extremes

State Highs State Lows

Community

WunderPhotos

Upload Photos

1,935,265 photos uploaded!

WunderBlog® & News

Nearby

Air Quality

  Air Quality AQ Index Pollutant
Not available.

Snow Depth

Station Depth Elevation

Earthquake Activity

City Distance Mag. Time & Date
Minimum magnitude displayed is 2.5.

Coastal Water Temperatures

Place Temperature

Stations

Nearby Weather Stations

Station Location Temp. Windchill Dew Point Humidity Wind Precip. Elev Updated Type
                   

Watches & Warnings

There are currently no watches in effect.